createdAt,value
2023-06-29T00:01:56.476Z,11.68
2023-06-29T00:04:26.983Z,7.32
2023-06-29T00:06:55.762Z,5.20
2023-06-29T00:09:23.654Z,12.95
2023-06-29T00:11:50.784Z,5.03
2023-06-29T00:14:17.607Z,9.00
2023-06-29T00:16:44.712Z,6.40
2023-06-29T00:19:13.067Z,7.72
2023-06-29T00:21:40.291Z,8.88
2023-06-29T00:24:07.619Z,6.78
2023-06-29T00:26:34.473Z,5.55
2023-06-29T00:29:01.330Z,5.55
2023-06-29T00:31:28.310Z,6.10
2023-06-29T00:33:55.289Z,10.45
2023-06-29T00:36:22.339Z,8.05
2023-06-29T00:38:49.450Z,5.32
2023-06-29T00:41:16.338Z,9.80
2023-06-29T00:43:44.321Z,6.22
2023-06-29T00:46:14.177Z,11.15
2023-06-29T00:48:41.077Z,8.35
2023-06-29T00:51:08.309Z,8.45
2023-06-29T00:53:35.251Z,6.88
2023-06-29T00:56:03.192Z,5.38
2023-06-29T00:58:30.405Z,25.67
2023-06-29T01:00:57.388Z,4.90
2023-06-29T01:03:24.933Z,9.50
2023-06-29T01:05:57.579Z,6.90
2023-06-29T01:08:32.612Z,9.73
2023-06-29T01:11:02.707Z,7.18
2023-06-29T01:13:31.092Z,6.90
2023-06-29T01:15:59.684Z,6.95
2023-06-29T01:18:29.001Z,8.25
2023-06-29T01:20:56.564Z,7.57
2023-06-29T01:23:28.260Z,5.07
2023-06-29T01:25:56.526Z,12.23
2023-06-29T01:28:23.364Z,5.88
2023-06-29T01:30:51.259Z,10.23
2023-06-29T01:33:24.883Z,7.25
2023-06-29T01:36:01.610Z,8.02
2023-06-29T01:38:33.746Z,10.75
2023-06-29T01:41:02.530Z,5.93
2023-06-29T01:43:30.591Z,12.77
2023-06-29T01:45:58.539Z,6.05
2023-06-29T01:48:26.771Z,7.53
2023-06-29T01:50:53.849Z,6.63
2023-06-29T01:53:21.129Z,4.22
2023-06-29T01:55:47.890Z,8.05
2023-06-29T01:58:14.703Z,7.30
2023-06-29T02:00:41.510Z,7.85
2023-06-29T02:03:08.333Z,9.57
2023-06-29T02:05:35.271Z,10.38
2023-06-29T02:08:02.184Z,9.90
2023-06-29T02:10:29.036Z,6.78
2023-06-29T02:12:55.836Z,5.65
2023-06-29T02:15:22.768Z,11.82
2023-06-29T02:17:49.585Z,12.18
2023-06-29T02:20:18.644Z,7.40
2023-06-29T02:22:45.582Z,6.47
2023-06-29T02:25:12.970Z,6.28
2023-06-29T02:27:39.717Z,7.40
2023-06-29T02:30:07.270Z,5.68
2023-06-29T02:32:34.138Z,6.93
2023-06-29T02:35:00.916Z,9.75
2023-06-29T02:37:27.721Z,11.95
2023-06-29T02:39:54.475Z,5.07
2023-06-29T02:42:23.353Z,4.82
2023-06-29T02:44:50.143Z,9.55
2023-06-29T02:47:16.952Z,6.75
2023-06-29T02:49:43.715Z,4.80
2023-06-29T02:52:10.512Z,5.47
2023-06-29T02:54:37.275Z,11.25
2023-06-29T02:57:04.240Z,11.68
2023-06-29T02:59:31.230Z,8.80
2023-06-29T03:01:58.053Z,3.00
2023-06-29T03:04:24.820Z,5.53
2023-06-29T03:06:51.604Z,6.53
2023-06-29T03:09:18.430Z,3.92
2023-06-29T03:11:45.276Z,7.25
2023-06-29T03:14:12.107Z,4.70
2023-06-29T03:16:40.334Z,8.52
2023-06-29T03:19:07.190Z,6.47
2023-06-29T03:21:34.000Z,7.63
2023-06-29T03:24:00.885Z,9.50
2023-06-29T03:26:27.669Z,6.28
2023-06-29T03:28:54.453Z,9.00
2023-06-29T03:31:21.324Z,3.28
2023-06-29T03:33:48.176Z,6.45
2023-06-29T03:36:15.036Z,10.40
2023-06-29T03:38:41.794Z,6.72
2023-06-29T03:41:08.705Z,5.43
2023-06-29T03:43:35.460Z,8.05
2023-06-29T03:46:02.452Z,5.53
2023-06-29T03:48:29.304Z,6.70
2023-06-29T03:50:59.443Z,9.35
2023-06-29T03:53:26.215Z,4.45
2023-06-29T03:55:53.014Z,13.23
2023-06-29T03:58:19.939Z,6.78
2023-06-29T04:00:46.770Z,6.32
2023-06-29T04:03:13.783Z,8.43
2023-06-29T04:05:40.758Z,7.55
2023-06-29T04:08:08.241Z,6.97
2023-06-29T04:10:35.568Z,8.32
2023-06-29T04:13:02.642Z,9.63
2023-06-29T04:15:29.503Z,9.00
2023-06-29T04:17:56.368Z,7.88
2023-06-29T04:20:23.189Z,11.05
2023-06-29T04:22:49.999Z,8.18
2023-06-29T04:25:16.807Z,5.05
2023-06-29T04:27:44.265Z,4.90
2023-06-29T04:30:12.404Z,9.45
2023-06-29T04:32:40.133Z,8.25
2023-06-29T04:35:10.590Z,8.10
2023-06-29T04:37:41.958Z,14.30
2023-06-29T04:42:49.553Z,8.50
2023-06-29T04:45:19.512Z,6.00
2023-06-29T04:47:53.297Z,9.13
2023-06-29T04:50:26.538Z,8.75
2023-06-29T04:52:55.096Z,6.68
2023-06-29T04:55:23.048Z,5.85
2023-06-29T04:57:49.863Z,7.90
2023-06-29T05:00:17.084Z,7.50
2023-06-29T05:02:44.079Z,5.28
2023-06-29T05:05:11.058Z,6.50
2023-06-29T05:07:39.224Z,11.27
2023-06-29T05:10:06.935Z,4.63
2023-06-29T05:12:34.171Z,8.90
2023-06-29T05:15:01.006Z,11.38
2023-06-29T05:17:27.758Z,7.88
2023-06-29T05:19:54.685Z,3.80
2023-06-29T05:22:21.517Z,7.45
2023-06-29T05:24:48.290Z,10.02
2023-06-29T05:27:15.050Z,8.65
2023-06-29T05:29:41.912Z,8.88
2023-06-29T05:32:09.025Z,5.45
2023-06-29T05:34:36.859Z,15.45
2023-06-29T05:37:04.010Z,5.10
2023-06-29T05:39:30.847Z,5.90
2023-06-29T05:41:57.643Z,5.68
2023-06-29T05:44:24.477Z,9.70
2023-06-29T05:46:51.326Z,7.03
2023-06-29T05:49:18.139Z,6.05
2023-06-29T05:51:44.985Z,3.97
2023-06-29T05:54:11.854Z,7.40
2023-06-29T05:56:38.762Z,10.35
2023-06-29T05:59:05.619Z,9.27
2023-06-29T06:01:32.659Z,9.80
2023-06-29T06:03:59.756Z,9.68
2023-06-29T06:06:26.659Z,10.43
2023-06-29T06:08:53.448Z,4.78
2023-06-29T06:11:20.189Z,6.15
2023-06-29T06:13:47.083Z,8.25
2023-06-29T06:16:13.944Z,6.65
2023-06-29T06:18:40.731Z,8.60
2023-06-29T06:21:07.738Z,3.40
2023-06-29T06:23:34.718Z,3.47
2023-06-29T06:26:02.313Z,4.68
2023-06-29T06:28:29.321Z,8.38
2023-06-29T06:30:56.269Z,7.53
2023-06-29T06:33:23.191Z,5.65
2023-06-29T06:35:50.445Z,12.75
2023-06-29T06:38:17.517Z,5.20
2023-06-29T06:40:44.546Z,8.07
2023-06-29T06:43:11.597Z,8.48
2023-06-29T06:45:38.395Z,7.78
2023-06-29T06:48:05.555Z,7.60
2023-06-29T06:50:32.493Z,5.00
2023-06-29T06:52:59.262Z,7.93
2023-06-29T06:55:27.260Z,8.27
2023-06-29T06:57:54.183Z,5.10
2023-06-29T07:00:21.469Z,9.07
2023-06-29T07:02:48.317Z,4.57
2023-06-29T07:05:16.259Z,8.75
2023-06-29T07:07:43.187Z,7.43
2023-06-29T07:10:10.806Z,5.40
2023-06-29T07:12:38.112Z,5.88
2023-06-29T07:15:05.840Z,5.32
2023-06-29T07:17:33.487Z,7.70
2023-06-29T07:24:59.892Z,7.88
2023-06-29T07:27:26.798Z,6.80
2023-06-29T07:29:53.610Z,13.27
2023-06-29T07:32:20.381Z,7.32
2023-06-29T07:34:47.228Z,4.95
2023-06-29T07:37:14.110Z,7.80
2023-06-29T07:39:40.890Z,7.43
2023-06-29T07:42:07.755Z,8.70
2023-06-29T07:44:34.599Z,9.80
2023-06-29T07:47:01.616Z,5.57
2023-06-29T07:49:28.455Z,5.88
2023-06-29T07:51:55.246Z,9.88
2023-06-29T07:54:22.015Z,6.72
2023-06-29T07:59:18.554Z,10.88
2023-06-29T08:01:49.724Z,3.40
2023-06-29T08:04:17.722Z,6.10
2023-06-29T08:07:07.682Z,8.93
2023-06-29T08:09:36.503Z,8.20
2023-06-29T08:12:03.628Z,9.55
2023-06-29T08:14:30.423Z,6.47
2023-06-29T08:16:57.314Z,8.27
2023-06-29T08:19:24.294Z,7.47
2023-06-29T08:21:56.660Z,8.80
2023-06-29T08:24:23.609Z,8.95
2023-06-29T08:26:50.454Z,9.43
2023-06-29T08:29:17.333Z,8.40
2023-06-29T08:31:44.465Z,6.57
2023-06-29T08:34:12.172Z,4.90
2023-06-29T08:36:39.057Z,8.70
2023-06-29T08:39:05.949Z,6.00
2023-06-29T08:41:32.779Z,7.70
2023-06-29T08:43:59.928Z,7.55
2023-06-29T08:46:29.004Z,8.45
2023-06-29T08:48:56.511Z,5.97
2023-06-29T08:51:23.544Z,9.65
2023-06-29T08:53:52.098Z,8.05
2023-06-29T08:56:20.400Z,4.05
2023-06-29T08:58:47.829Z,7.45
2023-06-29T09:01:14.671Z,8.98
2023-06-29T09:03:42.067Z,8.25
2023-06-29T09:06:10.489Z,8.35
2023-06-29T09:08:39.134Z,5.32
2023-06-29T09:11:06.140Z,6.93
2023-06-29T09:13:34.726Z,6.68
2023-06-29T09:16:03.035Z,6.97
2023-06-29T09:18:30.840Z,4.60
2023-06-29T09:20:58.111Z,6.90
2023-06-29T09:23:30.149Z,11.40
2023-06-29T09:25:58.106Z,5.13
2023-06-29T09:28:25.576Z,5.75
2023-06-29T09:30:52.633Z,5.35
2023-06-29T09:33:20.529Z,4.60
2023-06-29T09:35:53.286Z,4.55
2023-06-29T09:38:21.713Z,6.00
2023-06-29T09:40:53.741Z,5.53
2023-06-29T09:43:23.354Z,5.20
2023-06-29T09:45:53.020Z,4.43
2023-06-29T09:50:56.118Z,6.45
2023-06-29T09:53:34.002Z,5.68
2023-06-29T09:56:03.347Z,6.10
2023-06-29T09:58:31.418Z,9.68
2023-06-29T10:01:01.254Z,9.82
2023-06-29T10:03:29.230Z,7.47
2023-06-29T10:06:04.668Z,7.15
2023-06-29T10:08:34.262Z,8.95
2023-06-29T10:11:03.941Z,5.72
2023-06-29T10:13:38.683Z,9.25
2023-06-29T10:16:10.224Z,6.68
2023-06-29T10:18:45.612Z,11.13
2023-06-29T10:21:12.638Z,9.90
2023-06-29T10:23:42.570Z,5.18
2023-06-29T10:26:10.747Z,9.73
2023-06-29T10:28:38.296Z,13.38
2023-06-29T10:31:05.229Z,8.10
2023-06-29T10:33:32.336Z,9.65
2023-06-29T10:36:01.281Z,15.27
2023-06-29T10:38:33.065Z,8.07
2023-06-29T10:40:59.958Z,7.65
2023-06-29T10:43:29.696Z,5.30
2023-06-29T10:45:56.468Z,12.52
2023-06-29T10:48:42.813Z,7.57
2023-06-29T10:51:12.950Z,9.80
2023-06-29T10:53:40.380Z,6.05
2023-06-29T10:56:33.397Z,7.47
2023-06-29T10:59:00.798Z,10.38
2023-06-29T11:01:28.057Z,7.03
2023-06-29T11:03:55.284Z,9.30
2023-06-29T11:06:33.509Z,7.45
2023-06-29T11:09:11.737Z,7.15
2023-06-29T11:11:39.575Z,8.10
2023-06-29T11:14:06.487Z,5.25
2023-06-29T11:16:34.838Z,7.07
2023-06-29T11:19:03.427Z,3.78
2023-06-29T11:21:30.444Z,7.70
2023-06-29T11:23:57.304Z,8.27
2023-06-29T11:26:24.709Z,6.00
2023-06-29T11:28:52.823Z,6.63
2023-06-29T11:31:21.255Z,7.15
2023-06-29T11:33:49.487Z,5.97
2023-06-29T11:36:16.825Z,9.68
2023-06-29T11:38:43.827Z,8.30
2023-06-29T11:41:10.993Z,6.20
2023-06-29T11:43:37.906Z,7.88
2023-06-29T11:46:04.951Z,5.43
2023-06-29T11:48:31.816Z,7.60
2023-06-29T11:51:01.418Z,7.35
2023-06-29T11:53:30.293Z,5.90
2023-06-29T11:55:57.826Z,15.15
2023-06-29T11:58:32.940Z,6.25
2023-06-29T12:00:59.793Z,8.43
2023-06-29T12:03:27.935Z,7.65
2023-06-29T12:05:59.231Z,11.60
2023-06-29T12:08:26.066Z,10.25
2023-06-29T12:10:52.946Z,4.50
2023-06-29T12:13:20.804Z,6.70
2023-06-29T12:18:17.657Z,5.32
2023-06-29T12:20:47.976Z,7.35
2023-06-29T12:23:15.931Z,5.28
2023-06-29T12:25:48.588Z,5.00
2023-06-29T12:28:16.177Z,3.53
2023-06-29T12:30:44.289Z,7.45
2023-06-29T12:33:13.591Z,3.20
2023-06-29T12:35:40.802Z,7.68
2023-06-29T12:38:07.870Z,7.90
2023-06-29T12:40:35.327Z,5.15
2023-06-29T12:43:02.442Z,8.15
2023-06-29T12:45:29.379Z,7.32
2023-06-29T12:47:56.460Z,6.20
2023-06-29T12:50:23.371Z,6.57
2023-06-29T12:52:50.201Z,5.65
2023-06-29T12:55:17.158Z,3.42
2023-06-29T12:57:45.482Z,7.88
2023-06-29T13:00:13.866Z,6.00
2023-06-29T13:02:41.110Z,6.07
2023-06-29T13:05:08.142Z,4.35
2023-06-29T13:07:37.092Z,6.45
2023-06-29T13:10:05.060Z,5.53
2023-06-29T13:12:32.488Z,5.43
2023-06-29T13:15:00.273Z,7.53
2023-06-29T13:17:27.485Z,11.15
2023-06-29T13:19:54.354Z,13.63
2023-06-29T13:22:24.261Z,8.68
2023-06-29T13:24:51.132Z,11.75
2023-06-29T13:27:18.192Z,8.00
2023-06-29T13:29:45.031Z,11.40
2023-06-29T13:32:11.897Z,5.97
2023-06-29T13:34:38.709Z,9.85
2023-06-29T13:37:05.864Z,9.80
2023-06-29T13:39:32.742Z,6.72
2023-06-29T13:41:59.753Z,4.82
2023-06-29T13:44:26.537Z,8.50
2023-06-29T13:46:53.374Z,8.80
2023-06-29T13:49:21.610Z,10.77
2023-06-29T13:51:49.662Z,9.05
2023-06-29T13:54:17.078Z,9.02
2023-06-29T13:56:44.521Z,6.68
2023-06-29T13:59:11.503Z,6.80
2023-06-29T14:01:40.838Z,9.70
2023-06-29T14:04:11.117Z,7.95
2023-06-29T14:06:44.328Z,7.63
2023-06-29T14:09:13.037Z,6.68
2023-06-29T14:11:40.792Z,8.82
2023-06-29T14:14:07.734Z,5.35
2023-06-29T14:16:35.805Z,6.75
2023-06-29T14:19:03.750Z,6.50
2023-06-29T14:21:31.252Z,11.10
2023-06-29T14:23:58.131Z,5.55
2023-06-29T14:26:24.960Z,10.65
2023-06-29T14:28:52.122Z,7.97
2023-06-29T14:31:19.627Z,5.65
2023-06-29T14:33:46.681Z,9.85
2023-06-29T14:36:14.019Z,10.60
2023-06-29T14:38:40.973Z,5.85
2023-06-29T14:41:07.847Z,9.38
2023-06-29T14:43:34.715Z,10.55
2023-06-29T14:46:01.628Z,5.57
2023-06-29T14:48:28.560Z,7.20
2023-06-29T14:50:56.641Z,7.22
2023-06-29T14:53:24.516Z,6.60
2023-06-29T14:56:04.183Z,7.55
2023-06-29T14:58:31.499Z,10.10
2023-06-29T15:00:58.647Z,6.00
2023-06-29T15:03:25.884Z,9.05
2023-06-29T15:05:52.866Z,6.90
2023-06-29T15:08:19.701Z,11.57
2023-06-29T15:10:46.525Z,12.27
2023-06-29T15:13:13.591Z,10.55
2023-06-29T15:15:40.356Z,7.03
2023-06-29T15:18:07.225Z,7.97
2023-06-29T15:20:35.610Z,8.48
2023-06-29T15:23:02.679Z,8.45
2023-06-29T15:25:29.618Z,5.80
2023-06-29T15:27:59.121Z,11.48
2023-06-29T15:30:26.090Z,7.55
2023-06-29T15:32:52.919Z,10.00
2023-06-29T15:35:19.865Z,6.45
2023-06-29T15:37:46.689Z,10.38
2023-06-29T15:40:14.225Z,14.23
2023-06-29T15:42:41.400Z,11.23
2023-06-29T15:45:08.575Z,13.15
2023-06-29T15:47:37.008Z,11.75
2023-06-29T15:50:06.070Z,10.98
2023-06-29T15:52:33.465Z,10.80
2023-06-29T15:55:00.590Z,13.57
2023-06-29T15:57:27.381Z,15.40
2023-06-29T15:59:54.280Z,12.30
2023-06-29T16:02:21.284Z,11.90
2023-06-29T16:04:48.195Z,17.00
2023-06-29T16:07:15.076Z,11.68
2023-06-29T16:09:41.956Z,17.48
2023-06-29T16:12:09.712Z,13.18
2023-06-29T16:14:36.717Z,7.07
2023-06-29T16:17:03.905Z,16.35
2023-06-29T16:19:30.798Z,17.63
2023-06-29T16:21:57.772Z,11.70
2023-06-29T16:24:24.592Z,17.15
2023-06-29T16:26:51.993Z,11.65
2023-06-29T16:29:19.060Z,12.50
2023-06-29T16:31:49.635Z,14.27
2023-06-29T16:34:16.532Z,13.45
2023-06-29T16:36:43.632Z,18.88
2023-06-29T16:39:10.620Z,15.27
2023-06-29T16:41:38.086Z,13.15
2023-06-29T16:44:05.018Z,17.48
2023-06-29T16:46:31.947Z,12.98
2023-06-29T16:49:00.102Z,15.23
2023-06-29T16:51:29.358Z,17.15
2023-06-29T16:53:57.130Z,17.40
2023-06-29T16:56:24.062Z,18.23
2023-06-29T16:58:51.024Z,19.83
2023-06-29T17:01:18.580Z,18.05
2023-06-29T17:03:45.614Z,13.35
2023-06-29T17:06:12.949Z,17.33
2023-06-29T17:08:41.241Z,12.80
2023-06-29T17:11:08.648Z,17.65
2023-06-29T17:13:35.677Z,18.48
2023-06-29T17:16:03.390Z,15.30
2023-06-29T17:18:30.401Z,18.63
2023-06-29T17:20:57.188Z,19.90
2023-06-29T17:23:24.049Z,15.63
2023-06-29T17:25:51.777Z,19.15
2023-06-29T17:28:19.970Z,19.98
2023-06-29T17:30:47.105Z,14.70
2023-06-29T17:33:15.101Z,16.02
2023-06-29T17:35:42.405Z,19.58
2023-06-29T17:38:09.899Z,19.15
2023-06-29T17:40:36.758Z,19.13
2023-06-29T17:43:03.695Z,19.90
2023-06-29T17:45:30.620Z,19.75
2023-06-29T17:47:57.476Z,14.68
2023-06-29T17:50:24.411Z,15.52
2023-06-29T17:52:51.760Z,21.55
2023-06-29T17:55:19.480Z,17.42
2023-06-29T17:57:46.306Z,20.55
2023-06-29T18:00:16.438Z,13.95
2023-06-29T18:02:43.665Z,18.73
2023-06-29T18:05:11.182Z,14.75
2023-06-29T18:07:38.704Z,20.95
2023-06-29T18:10:08.245Z,18.83
2023-06-29T18:12:36.606Z,14.63
2023-06-29T18:15:04.473Z,20.38
2023-06-29T18:17:31.419Z,16.67
2023-06-29T18:19:59.107Z,18.92
2023-06-29T18:22:26.296Z,23.73
2023-06-29T18:24:53.349Z,22.45
2023-06-29T18:27:20.237Z,15.98
2023-06-29T18:29:47.005Z,17.67
2023-06-29T18:32:13.912Z,26.90
2023-06-29T18:34:40.685Z,25.40
2023-06-29T18:37:07.696Z,21.42
2023-06-29T18:39:34.526Z,26.33
2023-06-29T18:42:01.343Z,24.88
2023-06-29T18:44:28.140Z,23.38
2023-06-29T18:47:11.344Z,17.48
2023-06-29T18:49:50.802Z,20.65
2023-06-29T18:52:20.056Z,22.10
2023-06-29T18:54:47.518Z,26.85
2023-06-29T18:57:14.392Z,24.52
2023-06-29T18:59:43.176Z,19.95
2023-06-29T19:02:10.762Z,20.00
2023-06-29T19:04:37.580Z,24.65
2023-06-29T19:07:04.808Z,29.33
2023-06-29T19:09:31.879Z,27.27
2023-06-29T19:12:00.715Z,26.73
2023-06-29T19:14:27.773Z,26.20
2023-06-29T19:16:57.743Z,24.65
2023-06-29T19:19:25.378Z,25.10
2023-06-29T19:21:53.083Z,28.75
2023-06-29T19:24:20.354Z,24.30
2023-06-29T19:26:47.389Z,28.35
2023-06-29T19:29:14.875Z,21.35
2023-06-29T19:31:43.743Z,22.73
2023-06-29T19:34:12.113Z,29.17
2023-06-29T19:36:39.636Z,24.95
2023-06-29T19:39:06.666Z,27.88
2023-06-29T19:41:33.691Z,24.13
2023-06-29T19:44:01.186Z,22.67
2023-06-29T19:46:28.247Z,25.85
2023-06-29T19:48:55.313Z,24.60
2023-06-29T19:51:22.349Z,32.40
2023-06-29T19:53:49.185Z,30.73
2023-06-29T19:56:16.125Z,30.38
2023-06-29T19:58:43.030Z,30.50
2023-06-29T20:01:09.901Z,25.10
2023-06-29T20:03:36.795Z,18.20
2023-06-29T20:06:04.195Z,26.95
2023-06-29T20:08:31.089Z,24.45
2023-06-29T20:10:57.882Z,24.25
2023-06-29T20:13:24.729Z,24.50
2023-06-29T20:15:51.796Z,34.42
2023-06-29T20:18:18.671Z,24.92
2023-06-29T20:20:45.499Z,23.08
2023-06-29T20:23:12.442Z,29.00
2023-06-29T20:25:39.348Z,28.02
2023-06-29T20:28:06.225Z,28.30
2023-06-29T20:30:33.332Z,28.45
2023-06-29T20:33:00.310Z,25.67
2023-06-29T20:35:27.374Z,28.08
2023-06-29T20:37:54.826Z,31.95
2023-06-29T20:40:21.848Z,24.67
2023-06-29T20:42:48.706Z,26.92
2023-06-29T20:45:15.611Z,21.17
2023-06-29T20:47:42.483Z,26.75
2023-06-29T20:50:09.611Z,31.13
2023-06-29T20:52:36.453Z,34.88
2023-06-29T20:55:03.548Z,32.83
2023-06-29T20:57:30.322Z,30.85
2023-06-29T20:59:57.193Z,25.50
2023-06-29T21:02:24.231Z,29.67
2023-06-29T21:04:51.292Z,23.85
2023-06-29T21:07:19.124Z,29.52
2023-06-29T21:09:46.166Z,27.95
2023-06-29T21:12:13.892Z,32.65
2023-06-29T21:14:41.170Z,29.95
2023-06-29T21:17:08.580Z,31.55
2023-06-29T21:19:35.549Z,29.55
2023-06-29T21:22:02.646Z,35.25
2023-06-29T21:24:29.967Z,27.02
2023-06-29T21:26:56.929Z,30.70
2023-06-29T21:29:34.481Z,29.42
2023-06-29T21:32:11.707Z,35.75
2023-06-29T21:34:39.520Z,31.77
2023-06-29T21:37:07.008Z,25.23
2023-06-29T21:39:33.949Z,27.27
2023-06-29T21:42:00.994Z,22.80
2023-06-29T21:44:27.836Z,23.65
2023-06-29T21:46:54.768Z,23.90
2023-06-29T21:49:21.924Z,21.13
2023-06-29T21:51:49.053Z,19.55
2023-06-29T21:54:15.835Z,20.38
2023-06-29T21:56:42.743Z,15.93
2023-06-29T21:59:09.554Z,19.10
2023-06-29T22:01:36.446Z,22.52
2023-06-29T22:04:03.446Z,17.85
2023-06-29T22:06:30.608Z,14.70
2023-06-29T22:08:57.576Z,16.70
2023-06-29T22:11:28.184Z,14.93
2023-06-29T22:13:55.434Z,21.30
2023-06-29T22:16:25.112Z,15.63
2023-06-29T22:18:52.311Z,17.05
2023-06-29T22:21:22.407Z,18.70
2023-06-29T22:23:53.499Z,10.27
2023-06-29T22:26:21.849Z,15.23
2023-06-29T22:28:48.994Z,23.98
2023-06-29T22:31:18.581Z,21.88
2023-06-29T22:33:46.492Z,15.25
2023-06-29T22:36:15.019Z,15.65
2023-06-29T22:38:42.500Z,17.45
2023-06-29T22:41:09.971Z,15.18
2023-06-29T22:43:37.182Z,14.30
2023-06-29T22:46:04.163Z,15.38
2023-06-29T22:48:31.028Z,13.95
2023-06-29T22:50:58.108Z,14.15
2023-06-29T22:53:25.039Z,9.73
2023-06-29T22:55:51.892Z,13.98
2023-06-29T22:58:25.718Z,12.20
2023-06-29T23:00:56.127Z,13.98
2023-06-29T23:03:23.767Z,12.00
2023-06-29T23:05:50.892Z,11.75
2023-06-29T23:08:17.915Z,9.63
2023-06-29T23:10:47.722Z,15.45
2023-06-29T23:13:17.856Z,13.15
2023-06-29T23:15:46.237Z,10.27
2023-06-29T23:18:14.028Z,11.15
2023-06-29T23:20:45.724Z,6.82
2023-06-29T23:23:16.597Z,12.77
2023-06-29T23:25:43.787Z,10.75
2023-06-29T23:28:11.110Z,12.00
2023-06-29T23:30:38.441Z,9.18
2023-06-29T23:33:05.406Z,13.73
2023-06-29T23:35:32.370Z,10.68
2023-06-29T23:37:59.179Z,10.40
2023-06-29T23:40:27.218Z,11.55
2023-06-29T23:42:54.700Z,12.30
2023-06-29T23:45:22.926Z,12.32
2023-06-29T23:47:50.406Z,7.10
2023-06-29T23:50:19.483Z,13.98
2023-06-29T23:52:46.581Z,10.32
2023-06-29T23:55:13.752Z,10.98
2023-06-29T23:57:42.174Z,7.50
